Time;durP1;ratioP1;P1;durP2;ratioP2;P2;SDS_P1;SDS_P2;PMS_P1;PMS_P2;Temp;Humidity;BMP_temperature;BMP_pressure;BME280_temperature;BME280_humidity;BME280_pressure;Samples;Min_cycle;Max_cycle;Signal;HPM_P1;HPM_P2
2021/10/11 00:01:04;;;;;;;;;35.80;32.00;;;;;10.15;46.99;99536.75;6185401;28;98076;-63
2021/10/11 00:04:07;;;;;;;;;39.40;33.40;;;;;10.13;46.98;99529.91;6175986;28;97175;-65
2021/10/11 00:07:11;;;;;;;;;39.75;33.00;;;;;10.16;47.21;99529.56;6186139;28;96629;-65
2021/10/11 00:10:19;;;;;;;;;39.50;32.00;;;;;10.07;47.03;99528.03;6197286;28;96679;-64
2021/10/11 00:13:23;;;;;;;;;36.00;31.25;;;;;9.94;46.82;99518.03;6184755;28;98590;-65
2021/10/11 00:16:27;;;;;;;;;36.00;31.00;;;;;9.96;46.94;99516.81;6185252;28;96930;-64
2021/10/11 00:19:35;;;;;;;;;36.80;32.00;;;;;9.98;47.06;99517.44;6185464;28;98075;-63
2021/10/11 00:22:38;;;;;;;;;33.00;30.00;;;;;9.97;46.89;99515.75;6170043;28;97845;-63
2021/10/11 00:25:42;;;;;;;;;42.20;32.20;;;;;9.97;46.94;99514.94;6186593;28;97390;-64
2021/10/11 00:28:45;;;;;;;;;37.50;32.00;;;;;9.90;46.76;99506.03;6186642;28;96948;-66
2021/10/11 00:31:50;;;;;;;;;39.00;33.00;;;;;9.85;46.79;99503.09;6187666;28;97516;-64
2021/10/11 00:34:53;;;;;;;;;36.20;31.60;;;;;9.76;46.89;99497.06;6187161;28;98022;-63
2021/10/11 00:37:56;;;;;;;;;41.25;34.00;;;;;9.71;46.74;99504.09;6167748;28;98697;-64
2021/10/11 00:41:03;;;;;;;;;39.40;33.00;;;;;9.62;46.94;99494.53;6181906;28;99505;-66
2021/10/11 00:44:07;;;;;;;;;45.00;35.00;;;;;9.60;47.14;99494.72;6167617;28;98412;-64
2021/10/11 00:47:11;;;;;;;;;41.40;35.00;;;;;9.52;47.21;99501.13;6175776;28;96723;-64
2021/10/11 00:50:14;;;;;;;;;40.40;33.00;;;;;9.48;47.24;99494.44;6184717;28;98092;-66
2021/10/11 00:53:18;;;;;;;;;40.00;34.00;;;;;9.51;47.25;99491.38;6186639;28;97473;-65
2021/10/11 00:56:22;;;;;;;;;42.60;35.00;;;;;9.54;47.25;99499.03;6172570;28;100201;-63
2021/10/11 00:59:25;;;;;;;;;42.40;35.00;;;;;9.52;47.29;99492.19;6185492;28;97915;-66
2021/10/11 01:02:30;;;;;;;;;43.60;35.20;;;;;9.51;47.22;99493.22;6184438;28;97475;-64
2021/10/11 01:05:33;;;;;;;;;40.50;34.75;;;;;9.47;47.31;99494.66;6185982;28;98581;-65
2021/10/11 01:08:36;;;;;;;;;41.25;35.00;;;;;9.33;47.37;99469.56;6174882;28;97764;-63
2021/10/11 01:11:42;;;;;;;;;45.00;35.00;;;;;9.50;47.55;99481.63;6185154;28;97436;-64
2021/10/11 01:14:45;;;;;;;;;45.20;36.00;;;;;9.51;47.49;99475.22;6183786;28;98203;-64
2021/10/11 01:17:50;;;;;;;;;47.00;38.00;;;;;9.57;48.08;99473.59;6185210;28;97490;-64
2021/10/11 01:20:54;;;;;;;;;47.00;37.25;;;;;9.61;47.91;99476.72;6184590;28;96649;-65
2021/10/11 01:23:58;;;;;;;;;48.00;39.00;;;;;9.64;47.88;99481.66;6183572;28;96702;-65
2021/10/11 01:27:01;;;;;;;;;47.00;39.00;;;;;9.69;47.99;99480.03;6185344;28;96635;-66
2021/10/11 01:30:11;;;;;;;;;50.40;40.00;;;;;9.69;47.81;99469.28;6170168;28;98359;-63
2021/10/11 01:33:15;;;;;;;;;51.00;40.25;;;;;9.58;47.89;99453.69;6183979;28;99451;-63
2021/10/11 01:36:19;;;;;;;;;49.00;39.80;;;;;9.71;48.01;99464.53;6177977;28;97177;-66
2021/10/11 01:39:22;;;;;;;;;48.00;39.00;;;;;9.73;47.85;99465.13;6183176;28;96950;-64
2021/10/11 01:42:26;;;;;;;;;48.67;39.00;;;;;9.73;47.69;99467.00;6172626;28;96959;-65
2021/10/11 01:45:29;;;;;;;;;51.75;40.75;;;;;9.72;47.66;99459.97;6185000;28;97450;-66
2021/10/11 01:48:33;;;;;;;;;54.75;43.00;;;;;9.72;47.72;99462.66;6179037;28;96770;-66
2021/10/11 01:51:37;;;;;;;;;50.00;40.00;;;;;9.61;47.65;99444.41;6185317;28;96849;-65
2021/10/11 01:54:40;;;;;;;;;54.00;41.00;;;;;9.74;47.57;99458.72;6188256;28;97618;-64
2021/10/11 01:57:46;;;;;;;;;52.00;41.20;;;;;9.69;47.44;99463.06;6185320;28;97379;-63
2021/10/11 02:00:49;;;;;;;;;52.60;42.20;;;;;9.68;47.65;99456.00;6180495;28;97742;-65
2021/10/11 02:03:52;;;;;;;;;52.00;42.00;;;;;9.69;47.67;99452.28;6184680;28;97438;-63
2021/10/11 02:06:57;;;;;;;;;53.20;43.60;;;;;9.71;47.80;99451.06;6183946;28;97171;-64
2021/10/11 02:10:00;;;;;;;;;52.00;41.20;;;;;9.58;47.85;99445.63;6188923;28;97049;-65
2021/10/11 02:13:04;;;;;;;;;52.50;41.00;;;;;9.65;48.10;99451.03;6183920;28;99445;-64
2021/10/11 02:16:07;;;;;;;;;53.00;42.00;;;;;9.65;47.83;99446.47;6171402;28;98261;-64
2021/10/11 02:19:10;;;;;;;;;56.00;44.00;;;;;9.64;47.68;99443.97;6182738;28;96698;-63
2021/10/11 02:22:15;;;;;;;;;51.50;42.50;;;;;9.64;47.76;99442.13;6184880;28;96780;-63
2021/10/11 02:25:18;;;;;;;;;52.25;42.00;;;;;9.65;47.88;99446.47;6185572;28;97447;-65
2021/10/11 02:28:25;;;;;;;;;52.75;42.00;;;;;9.66;47.82;99426.59;6187283;28;97277;-63
2021/10/11 02:31:31;;;;;;;;;53.80;42.80;;;;;9.67;48.19;99433.66;6185073;28;96483;-63
2021/10/11 02:34:35;;;;;;;;;55.25;42.50;;;;;9.71;48.01;99434.91;6189396;28;96437;-63
2021/10/11 02:37:42;;;;;;;;;52.50;43.00;;;;;9.75;48.06;99425.38;6190424;28;98100;-63
2021/10/11 02:40:46;;;;;;;;;56.00;44.00;;;;;9.75;47.95;99425.38;6190213;28;97385;-64
2021/10/11 02:43:49;;;;;;;;;56.00;42.00;;;;;9.74;48.11;99426.41;6187358;28;97751;-64
2021/10/11 02:46:52;;;;;;;;;53.00;41.00;;;;;9.72;48.06;99425.81;6189598;28;97310;-64
2021/10/11 02:49:56;;;;;;;;;55.00;43.00;;;;;9.69;47.91;99422.66;6189446;28;97028;-65
2021/10/11 02:53:01;;;;;;;;;55.25;43.25;;;;;9.70;48.19;99416.25;6190379;28;96958;-64
2021/10/11 02:56:05;;;;;;;;;56.40;44.40;;;;;9.71;48.60;99417.91;6192183;28;96954;-64
2021/10/11 02:59:08;;;;;;;;;54.00;43.00;;;;;9.78;48.82;99407.97;6191510;28;97092;-64
2021/10/11 03:02:11;;;;;;;;;56.40;44.00;;;;;9.83;48.70;99410.91;6183579;28;97547;-65
2021/10/11 03:05:14;;;;;;;;;56.00;45.00;;;;;9.84;48.92;99402.63;6190623;28;97311;-66
2021/10/11 03:08:19;;;;;;;;;55.00;44.00;;;;;9.88;48.63;99397.66;6191290;28;96479;-64
2021/10/11 03:11:22;;;;;;;;;57.25;44.25;;;;;9.90;48.56;99393.72;6170669;28;96675;-64
2021/10/11 03:14:28;;;;;;;;;52.00;42.80;;;;;9.88;48.57;99393.09;6189793;28;97027;-65
2021/10/11 03:17:31;;;;;;;;;56.60;44.00;;;;;9.89;48.81;99397.44;6189127;28;98515;-64
2021/10/11 03:20:34;;;;;;;;;56.20;44.00;;;;;9.89;48.75;99396.63;6189261;28;97777;-64
2021/10/11 03:23:39;;;;;;;;;56.75;45.00;;;;;9.89;48.87;99386.69;6202754;28;96622;-65
2021/10/11 03:26:42;;;;;;;;;58.00;45.00;;;;;9.90;48.53;99393.72;6187157;28;97665;-66
2021/10/11 03:29:46;;;;;;;;;58.60;45.00;;;;;9.91;48.50;99397.25;6188768;28;98369;-66
2021/10/11 03:32:49;;;;;;;;;58.00;45.00;;;;;9.92;48.47;99401.63;6187273;28;96711;-64
2021/10/11 03:35:53;;;;;;;;;54.60;42.20;;;;;9.96;48.36;99394.78;6188183;28;98020;-63
2021/10/11 03:38:57;;;;;;;;;51.00;42.67;;;;;9.95;48.31;99395.81;6190969;28;97456;-64
2021/10/11 03:42:01;;;;;;;;;50.40;41.40;;;;;9.96;48.02;99397.47;6184187;28;98058;-65
2021/10/11 03:45:05;;;;;;;;;53.40;40.80;;;;;9.92;47.99;99382.75;6186128;28;97796;-65
2021/10/11 03:48:09;;;;;;;;;49.25;40.00;;;;;9.89;48.06;99383.97;6183911;28;96965;-65
2021/10/11 03:51:12;;;;;;;;;51.00;41.00;;;;;9.84;48.15;99383.78;6164857;28;98984;-63
2021/10/11 03:54:17;;;;;;;;;50.00;41.60;;;;;9.81;47.89;99383.34;6187457;28;97298;-65
2021/10/11 03:57:20;;;;;;;;;51.40;40.60;;;;;9.73;48.04;99378.16;6188508;28;97647;-66
2021/10/11 04:00:23;;;;;;;;;50.33;41.33;;;;;9.76;48.06;99389.34;6189967;28;98945;-64
2021/10/11 04:03:27;;;;;;;;;50.60;41.40;;;;;9.74;48.03;99380.66;6181697;28;96649;-64
2021/10/11 04:06:34;;;;;;;;;50.00;40.00;;;;;9.71;48.16;99382.91;6181151;28;97462;-64
2021/10/11 04:09:41;;;;;;;;;49.00;40.00;;;;;9.65;48.17;99367.56;6183572;28;97784;-64
2021/10/11 04:12:47;;;;;;;;;50.00;42.00;;;;;9.68;48.49;99373.38;6186566;28;96604;-64
2021/10/11 04:15:50;;;;;;;;;50.40;40.40;;;;;9.67;48.89;99369.06;6188126;28;96951;-64
2021/10/11 04:18:54;;;;;;;;;52.60;41.60;;;;;9.69;49.02;99372.34;6187461;28;96964;-65
2021/10/11 04:21:57;;;;;;;;;55.00;42.00;;;;;9.70;49.08;99365.94;6185745;28;98380;-66
2021/10/11 04:25:02;;;;;;;;;54.60;44.00;;;;;9.66;49.27;99366.56;6189146;28;96735;-63
2021/10/11 04:28:07;;;;;;;;;51.75;43.00;;;;;9.64;49.29;99361.38;6186050;28;97538;-63
2021/10/11 04:31:11;;;;;;;;;53.40;42.80;;;;;9.65;49.06;99359.50;6180603;28;97081;-64
2021/10/11 04:34:14;;;;;;;;;50.75;41.00;;;;;9.56;49.39;99345.41;6186947;28;99582;-64
2021/10/11 04:37:17;;;;;;;;;53.20;42.80;;;;;9.55;49.63;99357.19;6187957;28;97464;-64
2021/10/11 04:40:22;;;;;;;;;54.00;44.00;;;;;9.48;49.69;99351.78;6197407;28;98123;-63
2021/10/11 04:43:25;;;;;;;;;56.75;43.50;;;;;9.49;49.49;99352.63;6180594;28;98496;-63
2021/10/11 04:46:28;;;;;;;;;56.20;43.60;;;;;9.51;49.74;99347.88;6188748;28;97503;-65
2021/10/11 04:49:32;;;;;;;;;57.00;45.00;;;;;9.52;49.63;99347.69;6188226;28;97122;-64
2021/10/11 04:52:35;;;;;;;;;55.60;43.00;;;;;9.57;49.47;99341.69;6186419;28;96971;-64
2021/10/11 04:55:39;;;;;;;;;56.00;44.00;;;;;9.65;49.09;99344.19;6193380;28;98114;-64
2021/10/11 04:58:43;;;;;;;;;55.25;43.75;;;;;9.71;48.88;99345.22;6183417;28;100187;-65
2021/10/11 05:01:46;;;;;;;;;55.00;42.00;;;;;9.71;48.69;99342.53;6183613;28;97443;-63
2021/10/11 05:04:49;;;;;;;;;52.00;41.60;;;;;9.68;48.47;99345.63;6186515;28;96662;-64
2021/10/11 05:07:53;;;;;;;;;53.00;43.00;;;;;9.65;48.50;99346.03;6187345;28;99513;-63
2021/10/11 05:10:57;;;;;;;;;56.00;44.00;;;;;9.58;48.69;99344.16;6182157;28;97566;-65
2021/10/11 05:14:01;;;;;;;;;55.00;43.75;;;;;9.57;48.80;99345.22;6190852;28;96466;-63
2021/10/11 05:17:04;;;;;;;;;53.00;44.00;;;;;9.57;48.97;99350.59;6184532;28;98693;-64
2021/10/11 05:20:09;;;;;;;;;52.60;41.20;;;;;9.54;49.09;99342.06;6174520;28;98397;-64
2021/10/11 05:23:13;;;;;;;;;56.00;43.00;;;;;9.48;49.47;99327.56;6173266;28;98050;-64
2021/10/11 05:26:17;;;;;;;;;57.25;44.00;;;;;9.60;50.03;99346.66;6165106;28;96706;-64
2021/10/11 05:29:21;;;;;;;;;53.00;43.80;;;;;9.52;50.41;99350.38;6170252;28;97909;-63
2021/10/11 05:32:25;;;;;;;;;55.80;44.00;;;;;9.46;50.21;99350.34;6156898;28;97802;-65
2021/10/11 05:35:29;;;;;;;;;55.00;44.00;;;;;9.34;50.50;99350.09;6169196;28;96741;-63
2021/10/11 05:38:33;;;;;;;;;57.50;44.00;;;;;9.23;50.59;99321.13;6175329;28;96702;-65
2021/10/11 05:41:37;;;;;;;;;57.00;44.40;;;;;9.50;50.76;99344.34;6180191;28;96747;-65
2021/10/11 05:44:41;;;;;;;;;60.00;46.00;;;;;9.63;50.77;99340.84;6168590;28;100364;-64
2021/10/11 05:47:44;;;;;;;;;56.00;45.00;;;;;9.80;50.72;99342.13;6176670;28;97563;-64
2021/10/11 05:50:48;;;;;;;;;57.25;45.00;;;;;9.84;50.50;99342.53;6181475;28;96673;-64
2021/10/11 05:53:51;;;;;;;;;56.00;45.00;;;;;9.96;49.98;99341.75;6183138;28;97104;-63
2021/10/11 05:56:56;;;;;;;;;55.60;44.00;;;;;10.04;50.01;99347.94;6180026;28;98116;-66
2021/10/11 05:59:59;;;;;;;;;57.67;45.67;;;;;10.18;49.78;99338.84;6186039;28;97407;-66
2021/10/11 06:03:02;;;;;;;;;57.60;45.00;;;;;10.25;49.96;99332.44;6177529;28;97178;-68
2021/10/11 06:06:06;;;;;;;;;58.60;46.00;;;;;10.49;50.25;99330.13;6178080;28;97491;-67
2021/10/11 06:09:09;;;;;;;;;62.20;47.20;;;;;10.82;49.59;99334.38;6181320;28;97740;-65
2021/10/11 06:12:14;;;;;;;;;62.20;48.00;;;;;11.18;49.10;99330.31;6170808;28;97264;-66
2021/10/11 06:15:32;;;;;;;;;61.80;48.60;;;;;11.64;48.00;99335.44;6180240;28;97459;-66
2021/10/11 06:18:35;;;;;;;;;62.40;49.00;;;;;12.24;46.77;99328.56;6186745;28;98176;-65
2021/10/11 06:21:39;;;;;;;;;62.00;49.00;;;;;12.90;45.49;99327.91;6177076;28;98558;-67
2021/10/11 06:24:42;;;;;;;;;63.50;50.00;;;;;13.51;43.86;99324.22;6184777;28;96675;-65
2021/10/11 06:27:48;;;;;;;;;61.50;48.00;;;;;14.31;41.86;99328.19;6183795;28;96551;-65
2021/10/11 06:30:52;;;;;;;;;60.60;47.60;;;;;15.54;39.36;99320.56;6201114;28;96797;-64
2021/10/11 06:33:56;;;;;;;;;58.40;45.00;;;;;16.64;36.74;99322.69;6180165;28;97489;-65
2021/10/11 06:36:59;;;;;;;;;56.50;45.00;;;;;17.21;35.17;99327.81;6180478;28;97221;-64
2021/10/11 06:40:03;;;;;;;;;54.00;44.00;;;;;17.59;34.69;99333.19;6187729;28;97488;-66
2021/10/11 06:43:23;;;;;;;;;51.00;42.60;;;;;18.20;33.05;99339.22;6182427;28;97203;-68
2021/10/11 06:46:26;;;;;;;;;52.40;43.00;;;;;19.36;31.76;99337.22;6181828;28;98365;-68
2021/10/11 06:49:29;;;;;;;;;55.00;42.00;;;;;20.77;29.43;99332.22;6185355;28;96657;-66
2021/10/11 06:52:33;;;;;;;;;53.40;42.00;;;;;22.17;27.01;99338.16;6186397;28;96807;-68
2021/10/11 06:55:36;;;;;;;;;56.00;43.60;;;;;23.37;25.89;99331.72;6183868;28;97738;-68
2021/10/11 06:58:40;;;;;;;;;55.60;44.00;;;;;24.31;24.72;99340.88;6184669;28;97213;-68
2021/10/11 07:01:44;;;;;;;;;53.75;44.00;;;;;25.03;23.73;99339.31;6186496;28;97745;-69
2021/10/11 07:05:10;;;;;;;;;56.00;44.20;;;;;25.66;22.75;99340.53;6183979;28;98376;-67
2021/10/11 07:08:13;;;;;;;;;54.25;44.00;;;;;26.11;22.44;99345.03;6183998;28;97970;-68
2021/10/11 07:11:16;;;;;;;;;53.00;43.00;;;;;26.49;22.08;99339.97;6180926;28;98118;-69
2021/10/11 07:14:21;;;;;;;;;58.00;45.80;;;;;26.76;21.82;99343.72;6183389;28;97836;-67
2021/10/11 07:17:25;;;;;;;;;61.00;47.20;;;;;26.83;21.58;99346.84;6200474;28;97100;-65
2021/10/11 07:20:28;;;;;;;;;57.00;46.00;;;;;26.64;21.69;99275.97;6181992;28;99012;-64
2021/10/11 07:23:33;;;;;;;;;58.00;46.00;;;;;27.62;21.13;99335.78;6189887;28;97779;-67
2021/10/11 07:26:37;;;;;;;;;57.80;47.00;;;;;27.80;20.71;99337.47;6189674;28;97795;-68
2021/10/11 07:29:42;;;;;;;;;60.00;47.00;;;;;27.99;20.08;99329.66;6188931;28;97402;-70
2021/10/11 07:32:46;;;;;;;;;59.20;46.00;;;;;28.37;19.97;99330.63;6189761;28;97680;-68
2021/10/11 07:35:50;;;;;;;;;58.00;46.40;;;;;28.69;19.60;99323.69;6189670;28;96793;-68
2021/10/11 07:38:53;;;;;;;;;58.00;47.00;;;;;28.67;19.18;99327.97;6189540;28;96767;-67
2021/10/11 07:41:58;;;;;;;;;62.00;47.00;;;;;28.75;19.31;99321.59;6189355;28;97420;-68
2021/10/11 07:45:03;;;;;;;;;61.00;48.25;;;;;28.60;19.44;99322.09;6189037;28;97294;-67
2021/10/11 07:48:07;;;;;;;;;62.40;48.00;;;;;28.78;19.17;99305.09;6188582;28;97071;-68
2021/10/11 07:51:11;;;;;;;;;61.40;48.20;;;;;28.71;19.03;99315.06;6190043;28;97039;-66
2021/10/11 07:54:20;;;;;;;;;61.40;48.00;;;;;28.11;20.22;99299.34;6187905;28;97810;-65
2021/10/11 07:57:23;;;;;;;;;61.40;48.00;;;;;27.98;19.98;99303.06;6187662;28;97436;-68
2021/10/11 08:00:28;;;;;;;;;61.00;48.00;;;;;26.81;21.28;99300.13;6187971;28;98123;-67
2021/10/11 08:03:31;;;;;;;;;63.60;49.00;;;;;25.92;22.24;99280.84;6190461;28;96654;-67
2021/10/11 08:06:35;;;;;;;;;61.60;47.00;;;;;25.03;23.03;99259.31;6171033;28;97172;-69
2021/10/11 08:09:38;;;;;;;;;62.00;48.60;;;;;25.23;23.17;99282.09;6190363;28;97461;-68
2021/10/11 08:12:41;;;;;;;;;61.60;47.80;;;;;26.17;22.32;99290.44;6202651;28;96702;-67
2021/10/11 08:15:46;;;;;;;;;62.80;50.00;;;;;26.64;21.66;99294.50;6188913;28;97568;-68
2021/10/11 08:18:49;;;;;;;;;64.60;48.40;;;;;27.36;20.80;99296.94;6187642;28;97976;-66
2021/10/11 08:21:53;;;;;;;;;62.00;48.00;;;;;27.88;20.38;99295.91;6187164;28;97372;-66
2021/10/11 08:24:56;;;;;;;;;61.00;48.40;;;;;27.79;20.13;99297.03;6188957;28;96562;-66
2021/10/11 08:28:00;;;;;;;;;60.80;46.20;;;;;27.99;20.14;99304.72;6186041;28;98056;-66
2021/10/11 08:31:04;;;;;;;;;63.00;49.00;;;;;27.71;20.19;99297.84;6189139;28;97506;-66
2021/10/11 08:34:08;;;;;;;;;63.75;50.00;;;;;27.30;20.84;99296.28;6186117;28;98394;-67
2021/10/11 08:37:11;;;;;;;;;62.00;49.25;;;;;26.08;21.69;99264.72;6188253;28;96696;-65
2021/10/11 08:40:15;;;;;;;;;62.00;48.75;;;;;25.41;22.70;99279.19;6170475;28;99254;-66
2021/10/11 08:43:22;;;;;;;;;65.25;49.25;;;;;25.32;22.96;99280.25;6184973;28;96691;-67
2021/10/11 08:46:26;;;;;;;;;62.00;47.75;;;;;25.54;22.66;99285.03;6168615;28;97907;-70
2021/10/11 08:49:32;;;;;;;;;61.20;48.80;;;;;25.06;23.15;99279.16;6188962;28;97828;-66
2021/10/11 08:52:35;;;;;;;;;58.00;47.00;;;;;24.74;23.70;99283.59;6205928;28;97581;-63
2021/10/11 08:55:39;;;;;;;;;62.00;49.60;;;;;24.27;24.67;99284.75;6186893;28;99613;-67
2021/10/11 08:58:45;;;;;;;;;61.67;48.00;;;;;24.01;25.21;99278.81;6184672;28;97609;-70
2021/10/11 09:02:00;;;;;;;;;60.00;46.00;;;;;23.93;24.84;99276.75;6186535;28;97120;-69
2021/10/11 09:05:05;;;;;;;;;63.20;47.80;;;;;23.77;25.29;99283.59;6174066;28;96839;-67
2021/10/11 09:08:10;;;;;;;;;62.00;48.00;;;;;23.78;25.46;99273.41;6177802;28;98706;-68
2021/10/11 09:11:16;;;;;;;;;61.00;48.00;;;;;23.70;25.46;99278.44;6189347;28;97236;-66
2021/10/11 09:14:21;;;;;;;;;62.00;49.20;;;;;23.48;25.83;99274.66;6187707;28;96914;-67
2021/10/11 09:17:30;;;;;;;;;61.40;47.00;;;;;23.37;26.00;99284.94;6174051;28;97862;-65
2021/10/11 09:20:36;;;;;;;;;58.20;46.60;;;;;23.01;25.85;99270.03;6189668;28;97507;-66
2021/10/11 09:23:40;;;;;;;;;57.50;45.00;;;;;23.37;25.81;99271.19;6188468;28;97386;-67
2021/10/11 09:26:46;;;;;;;;;55.00;45.00;;;;;23.15;25.72;99271.78;6189030;28;96553;-65
2021/10/11 09:29:49;;;;;;;;;57.20;46.20;;;;;23.15;26.01;99271.78;6187487;28;96738;-67
2021/10/11 09:33:06;;;;;;;;;56.40;45.20;;;;;22.88;25.93;99258.63;6186848;28;96993;-67
2021/10/11 09:36:10;;;;;;;;;61.00;46.00;;;;;22.78;26.33;99260.66;6187670;28;97479;-66
2021/10/11 09:39:13;;;;;;;;;57.00;46.00;;;;;22.92;25.66;99258.84;6185619;28;97443;-67
2021/10/11 09:42:17;;;;;;;;;57.25;45.00;;;;;23.16;25.61;99265.16;6168635;28;96891;-68
2021/10/11 09:45:23;;;;;;;;;59.20;46.00;;;;;23.06;25.50;99246.03;6168673;28;99559;-68
2021/10/11 09:48:28;;;;;;;;;57.50;46.00;;;;;23.09;25.53;99255.63;6186536;28;96794;-65
2021/10/11 09:51:31;;;;;;;;;58.80;46.00;;;;;23.02;25.97;99244.97;6186867;28;98425;-66
2021/10/11 09:54:36;;;;;;;;;57.50;44.00;;;;;23.03;25.48;99246.63;6183207;28;97412;-69
2021/10/11 09:57:39;;;;;;;;;54.80;44.20;;;;;23.93;24.24;99216.16;6176130;28;97263;-68
2021/10/11 10:00:44;;;;;;;;;53.00;42.25;;;;;25.43;23.24;99245.78;6188174;28;98171;-66
2021/10/11 10:03:49;;;;;;;;;53.00;43.00;;;;;26.50;21.90;99231.00;6187257;28;96556;-67
2021/10/11 10:06:55;;;;;;;;;48.00;39.00;;;;;27.01;20.04;99241.50;6185608;28;98439;-68
2021/10/11 10:10:02;;;;;;;;;53.00;40.50;;;;;27.18;20.01;99226.88;6188240;28;97097;-66
2021/10/11 10:13:16;;;;;;;;;49.00;38.00;;;;;27.25;20.25;99227.22;6191500;28;96628;-65
2021/10/11 10:16:19;;;;;;;;;48.20;38.60;;;;;26.83;20.26;99222.38;6187542;28;96582;-66
2021/10/11 10:19:38;;;;;;;;;48.20;39.00;;;;;26.65;20.24;99222.28;6186572;28;96622;-68
2021/10/11 10:22:51;;;;;;;;;47.00;37.40;;;;;26.87;20.48;99215.09;6184150;28;98112;-67
2021/10/11 10:25:56;;;;;;;;;44.60;37.00;;;;;27.57;19.83;99207.41;6188276;28;97507;-70
2021/10/11 10:29:00;;;;;;;;;48.00;39.00;;;;;28.23;19.54;99204.41;6185119;28;96934;-67
2021/10/11 10:32:06;;;;;;;;;45.00;36.00;;;;;28.67;18.62;99178.97;6187847;28;96672;-67
2021/10/11 10:35:18;;;;;;;;;48.00;38.00;;;;;28.91;18.74;99181.16;6188436;28;97418;-67
2021/10/11 10:38:24;;;;;;;;;46.00;38.00;;;;;28.81;18.45;99187.06;6186431;28;97271;-66
2021/10/11 10:41:27;;;;;;;;;45.00;38.40;;;;;28.51;18.78;99188.16;6186116;28;96806;-67
2021/10/11 10:44:31;;;;;;;;;45.40;38.00;;;;;28.43;18.98;99176.78;6186611;28;98154;-69
2021/10/11 10:47:36;;;;;;;;;45.00;36.40;;;;;28.40;19.45;99159.97;6189004;28;97573;-65
2021/10/11 10:50:41;;;;;;;;;45.00;38.00;;;;;28.19;19.86;99162.69;6187857;28;97773;-69
2021/10/11 10:53:52;;;;;;;;;48.00;39.00;;;;;28.13;18.99;99163.19;6185859;28;96955;-69
2021/10/11 10:56:57;;;;;;;;;45.00;37.00;;;;;28.28;19.28;99149.59;6188786;28;96686;-69
2021/10/11 11:00:02;;;;;;;;;46.00;36.50;;;;;29.11;18.62;99149.81;6188544;28;97640;-70
2021/10/11 11:03:10;;;;;;;;;41.40;35.00;;;;;29.60;17.88;99148.16;6189726;28;97534;-68
2021/10/11 11:06:27;;;;;;;;;37.25;32.00;;;;;30.05;17.07;99144.63;6191284;28;97283;-68
2021/10/11 11:09:39;;;;;;;;;37.40;32.00;;;;;30.32;16.65;99138.41;6173064;28;96872;-70
2021/10/11 11:12:44;;;;;;;;;38.75;32.75;;;;;30.63;17.22;99134.28;6188053;28;97432;-69
2021/10/11 11:15:49;;;;;;;;;40.00;33.00;;;;;30.49;16.76;99132.66;6189658;28;96610;-66
2021/10/11 11:18:54;;;;;;;;;32.20;30.60;;;;;30.53;16.47;99135.56;6190350;28;97430;-70
2021/10/11 11:21:59;;;;;;;;;30.40;28.60;;;;;30.68;16.46;99122.91;6189061;28;99377;-65
2021/10/11 11:25:04;;;;;;;;;31.40;28.60;;;;;30.83;15.92;99117.47;6188898;28;98107;-69
2021/10/11 11:28:10;;;;;;;;;37.40;31.40;;;;;30.63;16.46;99126.75;6191406;28;97978;-65
2021/10/11 11:31:14;;;;;;;;;35.00;31.00;;;;;30.44;16.56;99123.69;6172434;28;97329;-68
2021/10/11 11:34:18;;;;;;;;;37.00;31.00;;;;;29.99;16.48;99105.09;6187888;28;96648;-64
2021/10/11 11:37:22;;;;;;;;;35.00;31.00;;;;;29.53;17.08;99108.97;6188110;28;99402;-67
2021/10/11 11:40:27;;;;;;;;;34.20;30.20;;;;;29.02;17.82;99110.22;6188494;28;98002;-68
2021/10/11 11:43:32;;;;;;;;;34.00;30.00;;;;;28.40;17.73;99107.28;6189449;28;98789;-68
2021/10/11 11:46:36;;;;;;;;;36.00;30.00;;;;;27.77;18.01;99106.19;6186128;28;97468;-67
2021/10/11 11:49:42;;;;;;;;;32.80;30.00;;;;;27.33;18.70;99101.81;6188360;28;97366;-68
2021/10/11 11:52:52;;;;;;;;;33.00;30.00;;;;;27.49;18.92;99099.41;6186085;28;96836;-68
2021/10/11 11:55:57;;;;;;;;;34.00;30.00;;;;;27.91;19.27;99097.66;6186926;28;98884;-69
2021/10/11 11:59:01;;;;;;;;;36.00;31.80;;;;;28.62;17.96;99097.88;6172741;28;97135;-70
2021/10/11 12:02:04;;;;;;;;;39.40;32.40;;;;;28.57;17.71;99093.34;6186953;28;96690;-70
2021/10/11 12:05:09;;;;;;;;;37.40;30.40;;;;;28.75;17.48;99094.06;6169142;28;99534;-67
2021/10/11 12:08:14;;;;;;;;;36.60;30.60;;;;;28.70;17.45;99089.50;6187243;28;96894;-69
2021/10/11 12:11:20;;;;;;;;;38.40;31.40;;;;;28.82;17.58;99092.41;6186556;28;96897;-68
2021/10/11 12:14:27;;;;;;;;;37.60;32.60;;;;;28.91;17.24;99085.97;6187060;28;96711;-68
2021/10/11 12:17:33;;;;;;;;;38.60;32.40;;;;;28.75;18.01;99082.97;6187789;28;97913;-68
2021/10/11 12:20:41;;;;;;;;;36.60;32.00;;;;;28.79;17.81;99078.38;6188205;28;96580;-66
2021/10/11 12:23:46;;;;;;;;;39.40;33.00;;;;;28.79;18.13;99075.59;6188678;28;97103;-68
2021/10/11 12:26:51;;;;;;;;;37.60;32.60;;;;;28.77;18.07;99084.28;6204130;28;96994;-68
2021/10/11 12:30:01;;;;;;;;;38.20;31.20;;;;;28.69;18.68;99084.28;6189672;28;97296;-69
2021/10/11 12:33:12;;;;;;;;;36.20;31.20;;;;;28.42;18.56;99078.09;6186476;28;96716;-67
2021/10/11 12:36:16;;;;;;;;;38.50;33.00;;;;;28.28;19.10;99079.47;6189440;28;97573;-67
2021/10/11 12:39:28;;;;;;;;;34.67;31.00;;;;;28.33;18.92;99071.78;6190266;28;97394;-68
2021/10/11 12:42:40;;;;;;;;;35.00;32.00;;;;;28.19;18.79;99079.50;6191621;28;97482;-67
2021/10/11 12:45:45;;;;;;;;;38.80;33.00;;;;;28.06;18.91;99072.19;6187920;28;97321;-66
2021/10/11 12:48:51;;;;;;;;;36.20;31.00;;;;;27.82;18.56;99070.00;6190291;28;97735;-69
2021/10/11 12:51:54;;;;;;;;;35.00;30.20;;;;;27.61;18.56;99068.28;6189956;28;97170;-67
2021/10/11 12:55:07;;;;;;;;;33.00;30.00;;;;;27.48;18.63;99070.03;6188701;28;97568;-69
2021/10/11 12:58:10;;;;;;;;;31.80;29.80;;;;;27.43;19.42;99064.66;6183017;28;96704;-68
2021/10/11 13:01:14;;;;;;;;;30.60;29.00;;;;;27.32;18.85;99068.94;6188208;28;96711;-66
2021/10/11 13:04:18;;;;;;;;;35.67;28.00;;;;;27.05;19.19;99056.25;6188477;28;97326;-66
2021/10/11 13:07:21;;;;;;;;;31.80;29.40;;;;;26.83;19.64;99062.69;6191732;28;96479;-66
2021/10/11 13:10:26;;;;;;;;;31.00;28.50;;;;;26.73;19.86;99066.59;6188820;28;97303;-67
2021/10/11 13:13:29;;;;;;;;;33.00;28.00;;;;;26.48;20.05;99070.16;6188175;28;96489;-66
2021/10/11 13:16:33;;;;;;;;;32.50;30.00;;;;;26.27;20.71;99058.06;6189279;28;97078;-66
2021/10/11 13:19:39;;;;;;;;;34.40;30.00;;;;;26.07;20.54;99042.84;6187037;28;97178;-68
2021/10/11 13:22:42;;;;;;;;;32.20;29.20;;;;;26.10;21.08;99050.47;6188491;28;97459;-67
2021/10/11 13:25:47;;;;;;;;;36.60;32.00;;;;;26.08;21.25;99044.47;6186928;28;97983;-67
2021/10/11 13:28:55;;;;;;;;;35.80;32.00;;;;;26.15;20.85;99047.56;6169644;28;96774;-66
2021/10/11 14:26:23;;;;;;;;;47.80;38.80;;;;;22.13;26.87;98993.84;6134596;28;97047;-69
2021/10/11 14:29:35;;;;;;;;;44.80;36.40;;;;;21.86;27.33;98997.16;6143770;28;98244;-66
2021/10/11 14:32:56;;;;;;;;;48.20;39.40;;;;;21.65;27.62;99005.94;6142822;28;97151;-66
2021/10/11 16:00:03;;;;;;;;;52.60;40.40;;;;;17.99;35.40;98986.28;6191226;28;97488;-67
2021/10/11 16:03:08;;;;;;;;;48.40;40.00;;;;;17.97;35.39;98988.50;6186619;28;98163;-68
2021/10/11 16:06:12;;;;;;;;;49.50;40.00;;;;;17.94;35.76;98983.53;6190515;28;96686;-70
2021/10/11 16:09:16;;;;;;;;;47.00;38.00;;;;;17.86;35.65;98985.97;6189603;28;97573;-67
2021/10/11 16:12:21;;;;;;;;;48.60;40.40;;;;;17.88;35.82;98990.09;6188575;28;96863;-69
2021/10/11 16:15:25;;;;;;;;;49.20;40.00;;;;;17.82;35.95;98991.16;6187946;28;97338;-67
2021/10/11 16:18:48;;;;;;;;;52.00;41.40;;;;;17.76;36.32;98989.47;6187280;28;97580;-66
2021/10/11 16:21:53;;;;;;;;;49.50;40.00;;;;;17.68;36.61;98987.28;6187292;28;97126;-67
2021/10/11 16:24:56;;;;;;;;;52.00;40.80;;;;;17.43;36.78;98963.38;6192288;28;97217;-66
2021/10/11 16:28:02;;;;;;;;;50.00;41.00;;;;;17.42;37.07;98971.81;6182450;28;97019;-66
2021/10/11 16:31:08;;;;;;;;;54.00;42.00;;;;;17.52;36.83;98991.78;6203815;28;96985;-68